createdAt,value
2023-02-06T00:00:10.918Z,-6.09
2023-02-06T00:02:40.846Z,-6.12
2023-02-06T00:05:10.913Z,-6.11
2023-02-06T00:07:40.766Z,-6.15
2023-02-06T00:10:10.729Z,-6.15
2023-02-06T00:12:40.589Z,-6.19
2023-02-06T00:15:10.564Z,-6.20
2023-02-06T00:17:40.574Z,-6.19
2023-02-06T00:20:10.617Z,-6.21
2023-02-06T00:22:40.922Z,-6.23
2023-02-06T00:25:09.110Z,-6.23
2023-02-06T00:27:37.040Z,-6.22
2023-02-06T00:30:06.491Z,-6.24
2023-02-06T00:32:35.641Z,-6.26
2023-02-06T00:35:06.323Z,-6.27
2023-02-06T00:37:36.013Z,-6.26
2023-02-06T00:40:08.106Z,-6.23
2023-02-06T00:42:37.824Z,-6.21
2023-02-06T00:45:08.947Z,-6.21
2023-02-06T00:47:38.793Z,-6.23
2023-02-06T00:50:09.408Z,-6.25
2023-02-06T00:52:39.113Z,-6.30
2023-02-06T00:55:08.936Z,-6.33
2023-02-06T00:57:38.833Z,-6.30
2023-02-06T01:00:10.175Z,-6.29
2023-02-06T01:02:40.321Z,-6.29
2023-02-06T01:05:11.239Z,-6.30
2023-02-06T01:07:42.549Z,-6.28
2023-02-06T01:10:13.587Z,-6.28
2023-02-06T01:12:43.628Z,-6.31
2023-02-06T01:15:14.444Z,-6.31
2023-02-06T01:17:44.532Z,-6.29
2023-02-06T01:20:14.608Z,-6.29
2023-02-06T01:22:44.590Z,-6.34
2023-02-06T01:25:14.441Z,-6.35
2023-02-06T01:27:44.556Z,-6.30
2023-02-06T01:30:14.692Z,-6.35
2023-02-06T01:32:44.530Z,-6.41
2023-02-06T01:35:14.307Z,-6.42
2023-02-06T01:37:44.199Z,-6.37
2023-02-06T01:40:16.896Z,-6.35
2023-02-06T01:42:46.902Z,-6.35
2023-02-06T01:45:39.582Z,-6.35
2023-02-06T01:48:17.191Z,-6.37
2023-02-06T01:50:53.829Z,-6.39
2023-02-06T01:53:25.305Z,-6.40
2023-02-06T01:55:59.731Z,-6.41
2023-02-06T01:58:37.241Z,-6.43
2023-02-06T02:01:08.844Z,-6.48
2023-02-06T02:03:44.180Z,-6.50
2023-02-06T02:06:20.101Z,-6.49
2023-02-06T02:08:54.548Z,-6.48
2023-02-06T02:11:37.500Z,-6.49
2023-02-06T02:14:12.640Z,-6.51
2023-02-06T02:16:52.141Z,-6.50
2023-02-06T02:19:50.804Z,-6.49
2023-02-06T02:22:50.175Z,-6.51
2023-02-06T02:25:40.956Z,-6.59
2023-02-06T02:28:48.001Z,-6.67
2023-02-06T02:31:42.186Z,-6.74
2023-02-06T02:34:17.709Z,-6.67
2023-02-06T02:37:20.037Z,-6.63
2023-02-06T02:40:08.071Z,-6.66
2023-02-06T02:43:22.960Z,-6.66
2023-02-06T02:46:24.394Z,-6.58
2023-02-06T02:49:03.607Z,-6.47
2023-02-06T02:51:35.880Z,-6.41
2023-02-06T02:54:06.429Z,-6.37
2023-02-06T02:56:36.949Z,-6.34
2023-02-06T02:59:25.391Z,-6.29
2023-02-06T03:02:11.834Z,-6.18
2023-02-06T03:04:50.617Z,-6.13
2023-02-06T03:07:54.732Z,-6.05
2023-02-06T03:11:06.015Z,-6.00
2023-02-06T03:13:48.850Z,-5.95
2023-02-06T03:16:48.794Z,-5.92
2023-02-06T03:19:27.293Z,-5.89
2023-02-06T03:21:57.497Z,-5.83
2023-02-06T03:24:34.785Z,-5.78
2023-02-06T03:27:13.674Z,-5.75
2023-02-06T03:29:49.025Z,-5.69
2023-02-06T03:32:26.997Z,-5.64
2023-02-06T03:35:05.939Z,-5.60
2023-02-06T03:37:38.292Z,-5.58
2023-02-06T03:40:09.799Z,-5.58
2023-02-06T03:42:52.607Z,-5.56
2023-02-06T03:45:31.739Z,-5.53
2023-02-06T03:48:27.749Z,-5.46
2023-02-06T03:51:03.742Z,-5.45
2023-02-06T03:53:37.798Z,-5.45
2023-02-06T03:56:15.882Z,-5.42
2023-02-06T03:58:45.775Z,-5.40
2023-02-06T04:01:17.653Z,-5.36
2023-02-06T04:03:47.254Z,-5.39
2023-02-06T04:06:17.207Z,-5.32
2023-02-06T04:08:47.322Z,-5.27
2023-02-06T04:11:17.203Z,-5.24
2023-02-06T04:13:47.056Z,-5.16
2023-02-06T04:16:17.028Z,-5.09
2023-02-06T04:18:46.824Z,-5.06
2023-02-06T04:21:17.085Z,-4.98
2023-02-06T04:23:46.795Z,-5.01
2023-02-06T04:26:16.710Z,-4.97
2023-02-06T04:28:46.463Z,-4.99
2023-02-06T04:31:16.450Z,-4.91
2023-02-06T04:33:46.500Z,-4.86
2023-02-06T04:36:16.298Z,-4.79
2023-02-06T04:38:46.103Z,-4.74
2023-02-06T04:41:15.872Z,-4.66
2023-02-06T04:43:44.429Z,-4.68
2023-02-06T04:46:12.866Z,-4.69
2023-02-06T04:48:41.169Z,-4.61
2023-02-06T04:51:10.267Z,-4.55
2023-02-06T04:53:38.468Z,-4.57
2023-02-06T04:56:10.707Z,-4.53
2023-02-06T04:58:39.727Z,-4.49
2023-02-06T05:01:09.603Z,-4.54
2023-02-06T05:03:37.816Z,-4.52
2023-02-06T05:06:06.967Z,-4.49
2023-02-06T05:08:34.719Z,-4.56
2023-02-06T05:11:03.536Z,-4.52
2023-02-06T05:13:33.797Z,-4.51
2023-02-06T05:16:14.036Z,-4.54
2023-02-06T05:18:45.034Z,-4.49
2023-02-06T05:21:16.078Z,-4.49
2023-02-06T05:23:45.858Z,-4.45
2023-02-06T05:26:15.897Z,-4.43
2023-02-06T05:28:45.682Z,-4.47
2023-02-06T05:31:19.803Z,-4.49
2023-02-06T05:33:54.916Z,-4.46
2023-02-06T05:36:25.004Z,-4.47
2023-02-06T05:38:55.228Z,-4.44
2023-02-06T05:41:25.017Z,-4.43
2023-02-06T05:43:54.809Z,-4.41
2023-02-06T05:46:24.986Z,-4.48
2023-02-06T05:48:54.811Z,-4.51
2023-02-06T05:51:25.113Z,-4.52
2023-02-06T05:53:54.935Z,-4.56
2023-02-06T05:56:24.716Z,-4.53
2023-02-06T05:58:53.454Z,-4.41
2023-02-06T06:01:21.553Z,-4.38
2023-02-06T06:03:50.001Z,-4.40
2023-02-06T06:06:18.468Z,-4.35
2023-02-06T06:08:47.100Z,-4.32
2023-02-06T06:11:16.676Z,-4.29
2023-02-06T06:13:43.969Z,-4.28
2023-02-06T06:16:12.359Z,-4.25
2023-02-06T06:18:40.779Z,-4.19
2023-02-06T06:21:09.239Z,-4.22
2023-02-06T06:23:37.569Z,-4.34
2023-02-06T06:26:06.064Z,-4.35
2023-02-06T06:28:35.957Z,-4.31
2023-02-06T06:31:05.053Z,-4.22
2023-02-06T06:33:34.999Z,-4.16
2023-02-06T06:36:02.685Z,-4.11
2023-02-06T06:38:31.029Z,-4.07
2023-02-06T06:40:59.423Z,-4.10
2023-02-06T06:43:28.571Z,-4.04
2023-02-06T06:45:57.120Z,-4.00
2023-02-06T06:48:24.659Z,-4.03
2023-02-06T06:50:53.440Z,-3.99
2023-02-06T06:53:22.322Z,-4.06
2023-02-06T06:55:50.095Z,-4.12
2023-02-06T06:58:18.249Z,-4.02
2023-02-06T07:00:47.211Z,-4.01
2023-02-06T07:03:15.168Z,-3.98
2023-02-06T07:05:43.561Z,-3.96
2023-02-06T07:08:11.981Z,-3.98
2023-02-06T07:10:40.454Z,-4.03
2023-02-06T07:13:09.090Z,-4.06
2023-02-06T07:15:37.657Z,-3.99
2023-02-06T07:18:05.666Z,-3.99
2023-02-06T07:20:34.832Z,-3.94
2023-02-06T07:23:02.506Z,-3.85
2023-02-06T07:25:30.884Z,-3.76
2023-02-06T07:27:59.562Z,-3.76
2023-02-06T07:30:27.936Z,-3.75
2023-02-06T07:32:56.110Z,-3.69
2023-02-06T07:35:24.886Z,-3.65
2023-02-06T07:37:54.183Z,-3.52
2023-02-06T07:40:25.122Z,-3.51
2023-02-06T07:42:52.996Z,-3.53
2023-02-06T07:45:22.728Z,-3.52
2023-02-06T07:47:52.478Z,-3.49
2023-02-06T07:50:22.443Z,-3.48
2023-02-06T07:52:52.168Z,-3.50
2023-02-06T07:55:21.885Z,-3.46
2023-02-06T07:57:51.727Z,-3.37
2023-02-06T08:00:21.888Z,-3.34
2023-02-06T08:02:51.904Z,-3.27
2023-02-06T08:05:21.707Z,-3.20
2023-02-06T08:07:52.184Z,-3.15
2023-02-06T08:10:21.601Z,-3.09
2023-02-06T08:12:51.315Z,-3.03
2023-02-06T08:15:21.149Z,-2.97
2023-02-06T08:17:51.307Z,-2.92
2023-02-06T08:20:21.099Z,-2.85
2023-02-06T08:22:50.891Z,-2.85
2023-02-06T08:25:20.691Z,-2.82
2023-02-06T08:27:55.212Z,-2.82
2023-02-06T08:30:24.654Z,-2.78
2023-02-06T08:32:54.547Z,-2.76
2023-02-06T08:35:24.323Z,-2.67
2023-02-06T08:37:54.149Z,-2.60
2023-02-06T08:40:24.033Z,-2.66
2023-02-06T08:42:53.888Z,-2.57
2023-02-06T08:45:23.691Z,-2.62
2023-02-06T08:47:53.581Z,-2.57
2023-02-06T08:50:23.360Z,-2.54
2023-02-06T08:52:53.196Z,-2.41
2023-02-06T08:55:25.181Z,-2.31
2023-02-06T08:57:53.197Z,-2.30
2023-02-06T09:00:23.448Z,-2.40
2023-02-06T09:02:54.690Z,-2.45
2023-02-06T09:05:24.334Z,-2.43
2023-02-06T09:07:54.052Z,-2.28
2023-02-06T09:10:27.755Z,-2.34
2023-02-06T09:12:57.680Z,-2.44
2023-02-06T09:15:24.617Z,-2.38
2023-02-06T09:17:54.373Z,-2.31
2023-02-06T09:20:26.676Z,-2.22
2023-02-06T09:22:55.720Z,-2.03
2023-02-06T09:25:25.436Z,-1.91
2023-02-06T09:27:57.051Z,-1.87
2023-02-06T09:30:25.468Z,-1.85
2023-02-06T09:32:55.323Z,-1.90
2023-02-06T09:35:25.201Z,-1.91
2023-02-06T09:37:54.996Z,-1.88
2023-02-06T09:40:29.526Z,-1.86
2023-02-06T09:43:00.959Z,-1.78
2023-02-06T09:45:33.144Z,-1.77
2023-02-06T09:48:20.890Z,-1.81
2023-02-06T09:51:26.399Z,-1.74
2023-02-06T09:54:41.260Z,-1.67
2023-02-06T09:57:48.871Z,-1.62
2023-02-06T10:00:41.818Z,-1.59
2023-02-06T10:04:13.014Z,-1.59
2023-02-06T10:06:55.189Z,-1.54
2023-02-06T10:09:43.873Z,-1.43
2023-02-06T10:12:28.610Z,-1.33
2023-02-06T10:15:07.327Z,-1.32
2023-02-06T10:17:53.958Z,-1.35
2023-02-06T10:20:36.212Z,-1.30
2023-02-06T10:23:23.732Z,-1.28
2023-02-06T10:26:17.626Z,-1.21
2023-02-06T10:28:55.931Z,-1.19
2023-02-06T10:31:25.693Z,-1.18
2023-02-06T10:34:31.539Z,-1.22
2023-02-06T10:37:28.592Z,-1.06
2023-02-06T10:40:18.663Z,-1.02
2023-02-06T10:43:20.371Z,-1.04
2023-02-06T10:46:05.396Z,-1.21
2023-02-06T10:48:46.615Z,-1.12
2023-02-06T10:51:32.597Z,-1.06
2023-02-06T10:54:39.740Z,-1.05
2023-02-06T10:57:20.193Z,-1.16
2023-02-06T10:59:54.021Z,-1.12
2023-02-06T11:02:49.037Z,-1.13
2023-02-06T11:05:31.758Z,-1.15
2023-02-06T11:08:18.283Z,-1.20
2023-02-06T11:10:49.117Z,-1.24
2023-02-06T11:13:34.719Z,-1.18
2023-02-06T11:16:16.602Z,-1.15
2023-02-06T11:18:51.026Z,-1.08
2023-02-06T11:21:51.034Z,-1.10
2023-02-06T11:24:24.775Z,-1.29
2023-02-06T11:27:18.935Z,-1.20
2023-02-06T11:29:52.165Z,-1.08
2023-02-06T11:32:38.063Z,-1.17
2023-02-06T11:35:26.474Z,-1.27
2023-02-06T11:38:27.819Z,-1.16
2023-02-06T11:41:05.845Z,-1.06
2023-02-06T11:43:41.804Z,-0.97
2023-02-06T11:46:11.525Z,-0.99
2023-02-06T11:48:55.507Z,-1.02
2023-02-06T11:51:44.465Z,-0.96
2023-02-06T11:54:22.157Z,-0.88
2023-02-06T11:57:07.874Z,-0.93
2023-02-06T12:00:01.109Z,-0.94
2023-02-06T12:02:35.984Z,-0.81
2023-02-06T12:05:19.424Z,-0.64
2023-02-06T12:08:13.800Z,-0.62
2023-02-06T12:10:58.483Z,-0.77
2023-02-06T12:13:37.268Z,-1.02
2023-02-06T12:16:13.219Z,-0.93
2023-02-06T12:18:49.450Z,-0.80
2023-02-06T12:21:47.139Z,-0.75
2023-02-06T12:24:38.442Z,-0.88
2023-02-06T12:27:26.826Z,-0.85
2023-02-06T12:30:03.816Z,-1.05
2023-02-06T12:32:42.039Z,-1.06
2023-02-06T12:35:34.994Z,-1.10
2023-02-06T12:38:21.068Z,-1.18
2023-02-06T12:41:05.844Z,-1.15
2023-02-06T12:43:39.455Z,-1.11
2023-02-06T12:46:28.204Z,-1.07
2023-02-06T12:48:59.658Z,-1.09
2023-02-06T12:51:46.518Z,-1.06
2023-02-06T12:54:42.485Z,-0.82
2023-02-06T12:57:26.874Z,-0.67
2023-02-06T13:00:44.902Z,-0.95
2023-02-06T13:03:43.708Z,-0.94
2023-02-06T13:06:21.074Z,-0.98
2023-02-06T13:08:56.815Z,-0.98
2023-02-06T13:11:41.633Z,-0.99
2023-02-06T13:14:24.019Z,-1.03
2023-02-06T13:17:16.928Z,-0.98
2023-02-06T13:19:45.777Z,-1.19
2023-02-06T13:22:19.404Z,-1.05
2023-02-06T13:24:50.031Z,-0.74
2023-02-06T13:27:19.029Z,-0.60
2023-02-06T13:29:52.730Z,-0.64
2023-02-06T13:32:22.728Z,-0.66
2023-02-06T13:35:18.621Z,-0.49
2023-02-06T13:37:51.448Z,-0.42
2023-02-06T13:40:24.076Z,-0.34
2023-02-06T13:43:26.214Z,-0.37
2023-02-06T13:46:05.843Z,-0.52
2023-02-06T13:49:11.865Z,-0.59
2023-02-06T13:52:26.881Z,-0.38
2023-02-06T13:55:37.832Z,-0.56
2023-02-06T13:58:32.368Z,-0.46
2023-02-06T14:01:11.463Z,-0.66
2023-02-06T14:03:49.790Z,-0.50
2023-02-06T14:06:55.126Z,-0.40
2023-02-06T14:09:44.033Z,-0.39
2023-02-06T14:12:35.445Z,-0.39
2023-02-06T14:16:02.941Z,-0.45
2023-02-06T14:18:50.782Z,-0.45
2023-02-06T14:21:55.249Z,-0.48
2023-02-06T14:25:04.178Z,-0.38
2023-02-06T14:27:59.499Z,-0.46
2023-02-06T14:30:57.960Z,-0.43
2023-02-06T14:34:18.847Z,-0.49
2023-02-06T14:36:57.667Z,-0.51
2023-02-06T14:39:42.925Z,-0.44
2023-02-06T14:42:20.880Z,-0.40
2023-02-06T14:45:21.714Z,-0.36
2023-02-06T14:47:54.852Z,-0.51
2023-02-06T14:50:27.859Z,-0.65
2023-02-06T14:53:18.039Z,-0.72
2023-02-06T14:55:47.861Z,-0.84
2023-02-06T14:58:24.982Z,-0.88
2023-02-06T15:00:57.503Z,-0.87
2023-02-06T15:03:27.720Z,-0.89
2023-02-06T15:06:05.802Z,-0.99
2023-02-06T15:08:36.544Z,-1.09
2023-02-06T15:11:19.611Z,-1.09
2023-02-06T15:13:53.569Z,-1.10
2023-02-06T15:16:23.351Z,-1.12
2023-02-06T15:19:11.205Z,-1.18
2023-02-06T15:21:43.110Z,-1.26
2023-02-06T15:24:34.184Z,-1.28
2023-02-06T15:27:28.027Z,-1.32
2023-02-06T15:29:57.721Z,-1.33
2023-02-06T15:32:35.674Z,-1.36
2023-02-06T15:35:34.926Z,-1.36
2023-02-06T15:38:14.232Z,-1.38
2023-02-06T15:40:47.927Z,-1.53
2023-02-06T15:43:25.684Z,-1.59
2023-02-06T15:46:03.015Z,-1.59
2023-02-06T15:48:53.851Z,-1.65
2023-02-06T15:51:39.213Z,-1.67
2023-02-06T15:54:25.915Z,-1.73
2023-02-06T15:57:22.444Z,-1.78
2023-02-06T15:59:52.478Z,-1.86
2023-02-06T16:02:35.198Z,-1.91
2023-02-06T16:05:09.200Z,-1.92
2023-02-06T16:07:39.109Z,-1.98
2023-02-06T16:10:08.783Z,-2.03
2023-02-06T16:12:43.398Z,-2.07
2023-02-06T16:15:33.584Z,-2.16
2023-02-06T16:18:26.619Z,-2.27
2023-02-06T16:21:22.779Z,-2.32
2023-02-06T16:24:00.220Z,-2.41
2023-02-06T16:26:31.374Z,-2.50
2023-02-06T16:29:10.441Z,-2.55
2023-02-06T16:31:43.926Z,-2.62
2023-02-06T16:34:34.675Z,-2.73
2023-02-06T16:37:11.959Z,-2.75
2023-02-06T16:39:44.247Z,-2.79
2023-02-06T16:42:33.506Z,-2.85
2023-02-06T16:45:23.360Z,-2.78
2023-02-06T16:47:54.789Z,-2.64
2023-02-06T16:50:24.592Z,-2.68
2023-02-06T16:52:58.482Z,-2.82
2023-02-06T16:55:28.875Z,-2.79
2023-02-06T16:58:01.028Z,-2.93
2023-02-06T17:00:31.801Z,-3.01
2023-02-06T17:03:00.792Z,-3.10
2023-02-06T17:05:31.393Z,-3.20
2023-02-06T17:08:02.224Z,-3.25
2023-02-06T17:10:32.000Z,-3.32
2023-02-06T17:13:02.132Z,-3.39
2023-02-06T17:15:32.124Z,-3.45
2023-02-06T17:18:01.845Z,-3.48
2023-02-06T17:20:38.548Z,-3.55
2023-02-06T17:23:12.781Z,-3.59
2023-02-06T17:25:43.612Z,-3.62
2023-02-06T17:28:18.107Z,-3.64
2023-02-06T17:30:50.748Z,-3.69
2023-02-06T17:33:20.926Z,-3.72
2023-02-06T17:35:50.703Z,-3.76
2023-02-06T17:38:20.507Z,-3.84
2023-02-06T17:40:50.385Z,-3.91
2023-02-06T17:43:20.479Z,-3.97
2023-02-06T17:45:48.805Z,-4.00
2023-02-06T17:48:16.964Z,-4.02
2023-02-06T17:50:46.738Z,-4.06
2023-02-06T17:53:14.572Z,-4.11
2023-02-06T17:55:44.993Z,-4.16
2023-02-06T17:58:14.189Z,-4.21
2023-02-06T18:00:42.644Z,-4.23
2023-02-06T18:03:11.315Z,-4.27
2023-02-06T18:05:39.505Z,-4.28
2023-02-06T18:08:07.895Z,-4.33
2023-02-06T18:10:39.422Z,-4.36
2023-02-06T18:13:09.505Z,-4.42
2023-02-06T18:15:39.556Z,-4.46
2023-02-06T18:18:09.568Z,-4.49
2023-02-06T18:20:41.460Z,-4.49
2023-02-06T18:23:13.220Z,-4.53
2023-02-06T18:25:44.216Z,-4.57
2023-02-06T18:28:15.152Z,-4.62
2023-02-06T18:30:45.963Z,-4.67
2023-02-06T18:33:15.900Z,-4.70
2023-02-06T18:35:46.513Z,-4.70
2023-02-06T18:38:17.730Z,-4.67
2023-02-06T18:40:47.844Z,-4.64
2023-02-06T18:43:17.834Z,-4.71
2023-02-06T18:45:47.710Z,-4.75
2023-02-06T18:48:17.931Z,-4.79
2023-02-06T18:50:47.874Z,-4.69
2023-02-06T18:53:17.773Z,-4.58
2023-02-06T18:55:58.235Z,-4.66
2023-02-06T18:58:28.001Z,-4.78
2023-02-06T19:00:57.810Z,-4.86
2023-02-06T19:03:27.698Z,-4.91
2023-02-06T19:05:57.727Z,-4.95
2023-02-06T19:08:27.851Z,-5.00
2023-02-06T19:10:57.621Z,-5.02
2023-02-06T19:13:27.958Z,-5.04
2023-02-06T19:16:12.485Z,-5.08
2023-02-06T19:18:47.954Z,-5.14
2023-02-06T19:21:21.822Z,-5.17
2023-02-06T19:23:58.509Z,-5.23
2023-02-06T19:26:29.238Z,-5.26
2023-02-06T19:28:59.878Z,-5.26
2023-02-06T19:31:27.701Z,-5.24
2023-02-06T19:34:00.438Z,-5.23
2023-02-06T19:36:29.961Z,-5.26
2023-02-06T19:39:06.010Z,-5.31
2023-02-06T19:41:36.630Z,-5.35
2023-02-06T19:44:11.056Z,-5.38
2023-02-06T19:46:40.801Z,-5.37
2023-02-06T19:49:11.343Z,-5.39
2023-02-06T19:51:44.788Z,-5.41
2023-02-06T19:54:15.614Z,-5.42
2023-02-06T19:56:48.885Z,-5.48
2023-02-06T19:59:25.012Z,-5.51
2023-02-06T20:02:00.393Z,-5.54
2023-02-06T20:04:35.934Z,-5.53
2023-02-06T20:07:05.351Z,-5.54
2023-02-06T20:09:36.587Z,-5.57
2023-02-06T20:12:12.139Z,-5.58
2023-02-06T20:14:42.175Z,-5.63
2023-02-06T20:17:12.448Z,-5.65
2023-02-06T20:19:42.223Z,-5.64
2023-02-06T20:22:12.093Z,-5.64
2023-02-06T20:24:41.934Z,-5.66
2023-02-06T20:27:13.248Z,-5.70
2023-02-06T20:29:45.791Z,-5.70
2023-02-06T20:32:18.307Z,-5.70
2023-02-06T20:34:48.118Z,-5.74
2023-02-06T20:37:18.151Z,-5.77
2023-02-06T20:39:49.172Z,-5.82
2023-02-06T20:42:22.307Z,-5.84
2023-02-06T20:44:52.720Z,-5.89
2023-02-06T20:47:20.714Z,-5.88
2023-02-06T20:49:50.561Z,-5.90
2023-02-06T20:52:19.257Z,-5.91
2023-02-06T20:54:47.537Z,-5.92
2023-02-06T20:57:16.006Z,-5.91
2023-02-06T20:59:44.734Z,-5.93
2023-02-06T21:02:13.243Z,-5.95
2023-02-06T21:04:41.345Z,-5.95
2023-02-06T21:07:09.849Z,-5.96
2023-02-06T21:09:38.531Z,-5.99
2023-02-06T21:12:12.212Z,-5.99
2023-02-06T21:14:42.434Z,-6.03
2023-02-06T21:17:12.357Z,-6.09
2023-02-06T21:19:42.132Z,-6.12
2023-02-06T21:22:12.196Z,-6.12
2023-02-06T21:24:41.908Z,-6.13
2023-02-06T21:27:11.642Z,-6.14
2023-02-06T21:29:41.553Z,-6.18
2023-02-06T21:32:14.278Z,-6.18
2023-02-06T21:34:44.248Z,-6.19
2023-02-06T21:37:14.492Z,-6.22
2023-02-06T21:39:44.459Z,-6.21
2023-02-06T21:42:20.865Z,-6.22
2023-02-06T21:44:48.735Z,-6.22
2023-02-06T21:47:15.989Z,-6.23
2023-02-06T21:49:46.712Z,-6.26
2023-02-06T21:52:16.467Z,-6.28
2023-02-06T21:54:46.279Z,-6.30
2023-02-06T21:57:16.222Z,-6.35
2023-02-06T21:59:46.170Z,-6.33
2023-02-06T22:02:16.051Z,-6.36
2023-02-06T22:04:44.849Z,-6.37
2023-02-06T22:07:13.431Z,-6.37
2023-02-06T22:09:41.677Z,-6.39
2023-02-06T22:12:16.852Z,-6.40
2023-02-06T22:14:46.720Z,-6.40
2023-02-06T22:17:16.567Z,-6.39
2023-02-06T22:25:08.335Z,-6.41
2023-02-06T22:27:39.144Z,-6.44
2023-02-06T22:30:10.557Z,-6.44
2023-02-06T22:32:40.871Z,-6.46
2023-02-06T22:35:10.697Z,-6.50
2023-02-06T22:37:43.072Z,-6.51
2023-02-06T22:40:13.930Z,-6.53
2023-02-06T22:42:43.801Z,-6.54
2023-02-06T22:45:13.537Z,-6.54
2023-02-06T22:47:43.399Z,-6.52
2023-02-06T22:50:13.259Z,-6.54
2023-02-06T22:53:01.611Z,-6.54
2023-02-06T22:55:49.575Z,-6.57
2023-02-06T22:58:19.469Z,-6.60
2023-02-06T23:00:49.409Z,-6.58
2023-02-06T23:03:19.256Z,-6.54
2023-02-06T23:05:49.018Z,-6.55
2023-02-06T23:08:19.230Z,-6.56
2023-02-06T23:10:49.035Z,-6.53
2023-02-06T23:13:18.818Z,-6.47
2023-02-06T23:15:48.595Z,-6.48
2023-02-06T23:18:18.566Z,-6.53
2023-02-06T23:20:56.728Z,-6.59
2023-02-06T23:23:27.302Z,-6.63
2023-02-06T23:25:57.745Z,-6.64
2023-02-06T23:28:27.983Z,-6.63
2023-02-06T23:30:57.849Z,-6.63
2023-02-06T23:33:27.906Z,-6.61
2023-02-06T23:36:08.516Z,-6.61
2023-02-06T23:38:39.210Z,-6.58
2023-02-06T23:41:15.962Z,-6.58
2023-02-06T23:44:01.256Z,-6.58
2023-02-06T23:46:34.684Z,-6.51
2023-02-06T23:49:06.435Z,-6.44
2023-02-06T23:51:38.165Z,-6.50
2023-02-06T23:54:09.065Z,-6.55
2023-02-06T23:56:39.012Z,-6.62
2023-02-06T23:59:08.992Z,-6.71
